createdAt,value
2016-11-23T00:01:08.291Z,0
2016-11-23T00:06:12.382Z,0
2016-11-23T00:11:16.476Z,0
2016-11-23T00:16:20.598Z,0
2016-11-23T00:21:25.330Z,0
2016-11-23T00:26:29.758Z,0
2016-11-23T00:31:34.521Z,0
2016-11-23T00:36:38.606Z,0
2016-11-23T00:41:43.030Z,0
2016-11-23T00:46:47.119Z,0
2016-11-23T00:51:51.907Z,0
2016-11-23T00:56:56.004Z,0
2016-11-23T01:02:00.091Z,0
2016-11-23T01:07:04.509Z,0
2016-11-23T01:12:08.599Z,0
2016-11-23T01:17:12.679Z,0
2016-11-23T01:22:17.104Z,0
2016-11-23T01:27:21.190Z,0
2016-11-23T01:32:25.284Z,0
2016-11-23T01:37:29.707Z,0
2016-11-23T01:42:34.465Z,0
2016-11-23T01:47:38.552Z,0
2016-11-23T01:52:42.983Z,0
2016-11-23T01:57:47.079Z,0
2016-11-23T02:02:51.843Z,0
2016-11-23T02:07:55.940Z,0
2016-11-23T02:13:00.708Z,0
2016-11-23T02:18:04.812Z,0
2016-11-23T02:23:09.231Z,0
2016-11-23T02:28:13.655Z,0
2016-11-23T02:33:18.082Z,0
2016-11-23T02:38:22.512Z,0
2016-11-23T02:43:26.599Z,0
2016-11-23T02:48:30.689Z,0
2016-11-23T02:53:34.771Z,0
2016-11-23T02:58:38.867Z,0
2016-11-23T03:03:43.294Z,0
2016-11-23T03:08:47.376Z,0
2016-11-23T03:13:51.466Z,0
2016-11-23T03:18:55.887Z,0
2016-11-23T03:23:59.974Z,0
2016-11-23T03:29:04.400Z,0
2016-11-23T03:34:08.491Z,0
2016-11-23T03:39:12.582Z,0
2016-11-23T03:44:16.675Z,0
2016-11-23T03:49:20.762Z,0
2016-11-23T03:54:24.848Z,0
2016-11-23T03:59:28.940Z,0
2016-11-23T04:04:33.702Z,0
2016-11-23T04:09:38.790Z,0
2016-11-23T04:14:43.218Z,0
2016-11-23T04:19:47.651Z,0
2016-11-23T04:24:51.735Z,0
2016-11-23T04:29:56.164Z,0
2016-11-23T04:35:00.253Z,0
2016-11-23T04:40:04.344Z,0
2016-11-23T04:45:09.441Z,0
2016-11-23T04:50:14.205Z,0
2016-11-23T04:55:18.299Z,0
2016-11-23T05:00:22.389Z,0
2016-11-23T05:05:27.150Z,0
2016-11-23T05:10:31.247Z,0
2016-11-23T05:15:35.679Z,0
2016-11-23T05:20:39.772Z,0
2016-11-23T05:25:43.859Z,0
2016-11-23T05:30:47.954Z,0
2016-11-23T05:35:52.423Z,0
2016-11-23T05:40:56.843Z,0
2016-11-23T05:46:00.934Z,0
2016-11-23T05:51:05.022Z,0
2016-11-23T05:56:09.118Z,0
2016-11-23T06:01:13.545Z,0
2016-11-23T06:06:18.309Z,0
2016-11-23T06:11:22.400Z,0
2016-11-23T06:16:26.505Z,0
2016-11-23T06:21:30.936Z,0
2016-11-23T06:26:35.057Z,0
2016-11-23T06:31:39.151Z,0
2016-11-23T06:36:43.573Z,0
2016-11-23T06:41:48.001Z,0
2016-11-23T06:46:52.098Z,0
2016-11-23T06:51:56.187Z,0
2016-11-23T06:57:00.277Z,0
2016-11-23T07:02:04.367Z,0
2016-11-23T07:07:08.460Z,0
2016-11-23T07:12:12.555Z,0
2016-11-23T07:17:16.645Z,0
2016-11-23T07:22:20.737Z,0
2016-11-23T07:27:25.165Z,0
2016-11-23T07:32:29.255Z,0
2016-11-23T07:37:33.679Z,0
2016-11-23T07:42:37.762Z,0
2016-11-23T07:47:42.524Z,0
2016-11-23T07:52:46.613Z,0
2016-11-23T07:57:51.043Z,0
2016-11-23T08:02:55.812Z,0
2016-11-23T08:08:00.243Z,0
2016-11-23T08:13:04.334Z,0
2016-11-23T08:18:08.421Z,0
2016-11-23T08:23:12.521Z,1
2016-11-23T08:28:16.956Z,1
2016-11-23T08:33:21.044Z,1
2016-11-23T08:38:25.136Z,1
2016-11-23T08:43:29.565Z,1
2016-11-23T08:48:34.006Z,1
2016-11-23T08:53:38.103Z,1
2016-11-23T08:58:42.530Z,2
2016-11-23T09:03:46.630Z,2
2016-11-23T09:08:51.055Z,2
2016-11-23T09:13:55.492Z,2
2016-11-23T09:18:59.928Z,3
2016-11-23T09:24:04.030Z,3
2016-11-23T09:29:08.563Z,2
2016-11-23T09:34:13.005Z,2
2016-11-23T09:39:17.456Z,2
2016-11-23T09:44:21.596Z,2
2016-11-23T09:49:25.693Z,2
2016-11-23T09:54:30.683Z,2
2016-11-23T09:59:34.740Z,3
2016-11-23T10:04:39.207Z,3
2016-11-23T10:09:43.313Z,3
2016-11-23T10:14:47.420Z,3
2016-11-23T10:19:51.737Z,3
2016-11-23T10:24:55.874Z,3
2016-11-23T10:30:00.674Z,3
2016-11-23T10:35:05.108Z,3
2016-11-23T10:40:09.211Z,3
2016-11-23T10:45:13.641Z,3
2016-11-23T10:50:17.737Z,4
2016-11-23T10:55:22.178Z,4
2016-11-23T11:00:26.274Z,6
2016-11-23T11:05:30.372Z,6
2016-11-23T11:10:34.472Z,6
2016-11-23T11:15:39.244Z,6
2016-11-23T11:20:43.339Z,6
2016-11-23T11:25:47.439Z,6
2016-11-23T11:30:51.967Z,6
2016-11-23T11:35:56.399Z,6
2016-11-23T11:41:00.494Z,6
2016-11-23T11:46:04.584Z,6
2016-11-23T11:51:09.015Z,6
2016-11-23T11:56:13.442Z,6
2016-11-23T12:01:20.995Z,6
2016-11-23T12:06:25.098Z,8
2016-11-23T12:11:29.529Z,9
2016-11-23T12:16:33.968Z,11
2016-11-23T12:21:38.405Z,10
2016-11-23T12:26:43.172Z,9
2016-11-23T12:31:47.305Z,6
2016-11-23T12:36:51.403Z,6
2016-11-23T12:41:55.833Z,7
2016-11-23T12:47:00.277Z,9
2016-11-23T12:52:04.716Z,8
2016-11-23T12:57:08.829Z,6
2016-11-23T13:02:12.923Z,7
2016-11-23T13:07:17.016Z,6
2016-11-23T13:12:21.463Z,5
2016-11-23T13:17:25.580Z,6
2016-11-23T13:22:29.914Z,6
2016-11-23T13:27:34.340Z,5
2016-11-23T13:32:38.474Z,5
2016-11-23T13:37:42.575Z,4
2016-11-23T13:42:46.668Z,4
2016-11-23T13:47:50.761Z,3
2016-11-23T13:52:54.860Z,3
2016-11-23T13:57:59.290Z,4
2016-11-23T14:03:03.383Z,3
2016-11-23T14:08:07.481Z,3
2016-11-23T14:13:11.936Z,2
2016-11-23T14:18:16.375Z,2
2016-11-23T14:23:20.477Z,1
2016-11-23T14:28:24.578Z,1
2016-11-23T14:33:29.039Z,1
2016-11-23T14:38:33.211Z,1
2016-11-23T14:43:37.653Z,1
2016-11-23T14:48:41.751Z,0
2016-11-23T14:53:46.177Z,0
2016-11-23T14:58:51.004Z,0
2016-11-23T15:03:55.192Z,0
2016-11-23T15:08:59.968Z,0
2016-11-23T15:14:04.067Z,0
2016-11-23T15:19:08.845Z,0
2016-11-23T15:24:13.232Z,0
2016-11-23T15:29:17.346Z,0
2016-11-23T15:34:21.791Z,0
2016-11-23T15:39:26.218Z,0
2016-11-23T15:44:45.577Z,0
2016-11-23T15:49:49.678Z,0
2016-11-23T15:54:53.776Z,0
2016-11-23T15:59:58.413Z,0
2016-11-23T16:05:02.488Z,0
2016-11-23T16:10:06.584Z,0
2016-11-23T16:15:11.364Z,0
2016-11-23T16:20:15.821Z,0
2016-11-23T16:25:19.912Z,0
2016-11-23T16:30:24.355Z,0
2016-11-23T16:35:28.449Z,0
2016-11-23T16:40:32.927Z,0
2016-11-23T16:45:37.423Z,0
2016-11-23T16:50:41.514Z,0
2016-11-23T16:55:45.951Z,0
2016-11-23T17:00:50.055Z,0
2016-11-23T17:05:54.479Z,0
2016-11-23T17:10:58.580Z,0
2016-11-23T17:16:02.898Z,0
2016-11-23T17:21:06.997Z,0
2016-11-23T17:26:11.444Z,0
2016-11-23T17:31:15.549Z,0
2016-11-23T17:36:19.664Z,0
2016-11-23T17:41:23.763Z,0
2016-11-23T17:46:28.190Z,0
2016-11-23T17:51:32.277Z,0
2016-11-23T17:56:36.719Z,0
2016-11-23T18:01:40.806Z,0
2016-11-23T18:06:45.236Z,0
2016-11-23T18:11:49.666Z,0
2016-11-23T18:16:53.770Z,0
2016-11-23T18:21:58.219Z,0
2016-11-23T18:27:02.320Z,0
2016-11-23T18:32:07.112Z,0
2016-11-23T18:37:11.186Z,0
2016-11-23T18:42:15.609Z,0
2016-11-23T18:47:19.701Z,0
2016-11-23T18:52:24.799Z,0
2016-11-23T18:57:29.563Z,0
2016-11-23T19:02:33.658Z,0
2016-11-23T19:07:37.749Z,0
2016-11-23T19:12:42.184Z,0
2016-11-23T19:17:46.281Z,0
2016-11-23T19:22:50.373Z,0
2016-11-23T19:27:54.798Z,0
2016-11-23T19:32:58.896Z,0
2016-11-23T19:38:02.992Z,0
2016-11-23T19:43:07.080Z,0
2016-11-23T19:48:11.174Z,0
2016-11-23T19:53:15.272Z,0
2016-11-23T19:58:19.694Z,0
2016-11-23T20:03:24.127Z,0
2016-11-23T20:08:29.148Z,0
2016-11-23T20:13:33.557Z,0
2016-11-23T20:18:37.658Z,0
2016-11-23T20:23:42.087Z,0
2016-11-23T20:28:46.184Z,0
2016-11-23T20:33:50.615Z,0
2016-11-23T20:38:54.707Z,0
2016-11-23T20:43:58.803Z,0
2016-11-23T20:49:03.243Z,0
2016-11-23T20:54:07.680Z,0
2016-11-23T20:59:12.313Z,0
2016-11-23T21:04:16.763Z,0
2016-11-23T21:09:21.580Z,0
2016-11-23T21:14:25.765Z,0
2016-11-23T21:19:29.871Z,0
2016-11-23T21:24:34.299Z,0
2016-11-23T21:29:38.746Z,0
2016-11-23T21:34:43.501Z,0
2016-11-23T21:39:47.818Z,0
2016-11-23T21:44:51.915Z,0
2016-11-23T21:49:56.030Z,0
2016-11-23T21:55:00.332Z,0
2016-11-23T22:00:04.771Z,0
2016-11-23T22:05:09.540Z,0
2016-11-23T22:10:13.967Z,0
2016-11-23T22:15:18.087Z,0
2016-11-23T22:20:22.188Z,0
2016-11-23T22:25:26.280Z,0
2016-11-23T22:30:30.704Z,0
2016-11-23T22:35:35.464Z,0
2016-11-23T22:40:39.559Z,0
2016-11-23T22:45:43.659Z,0
2016-11-23T22:50:47.759Z,0
2016-11-23T22:55:52.183Z,0
2016-11-23T23:00:56.280Z,0
2016-11-23T23:06:00.370Z,0
2016-11-23T23:11:04.464Z,0
2016-11-23T23:16:08.554Z,0
2016-11-23T23:21:12.657Z,0
2016-11-23T23:26:16.751Z,0
2016-11-23T23:31:20.838Z,0
2016-11-23T23:36:25.601Z,0
2016-11-23T23:41:30.038Z,0
2016-11-23T23:46:34.128Z,0
2016-11-23T23:51:38.224Z,0
2016-11-23T23:56:42.320Z,0
